Time,TemperatureF,DewpointF,PressureIn,WindDirection,WindDirectionDegrees,WindSpeedMPH,WindSpeedGustMPH,Humidity,HourlyPrecipIn,Conditions,Clouds,dailyrainin,SoftwareType,DateUTC
2013-02-28 00:01:00,34.0,7.0,30.20,WSW,244,18.0,32.0,31,0.00,,,0.00,,2013-02-28 07:01:00,
2013-02-28 00:11:00,34.0,7.0,30.20,WSW,244,18.0,32.0,31,0.00,,,0.00,,2013-02-28 07:11:00,
2013-02-28 00:21:00,33.0,6.0,30.20,West,271,14.0,27.0,32,0.00,,,0.00,,2013-02-28 07:21:00,
2013-02-28 00:31:00,33.0,6.0,30.19,WSW,241,16.0,24.0,32,0.00,,,0.00,,2013-02-28 07:31:00,
2013-02-28 00:41:00,33.0,6.0,30.19,WSW,241,16.0,24.0,32,0.00,,,0.00,,2013-02-28 07:41:00,
2013-02-28 00:51:00,33.0,6.0,30.19,SW,225,11.0,22.0,31,0.00,,,0.00,,2013-02-28 07:51:00,
2013-02-28 01:01:00,33.0,6.0,30.19,SSW,196,7.0,22.0,32,0.00,,,0.00,,2013-02-28 08:01:00,
2013-02-28 01:11:00,33.0,6.0,30.19,SSW,196,7.0,22.0,32,0.00,,,0.00,,2013-02-28 08:11:00,
2013-02-28 01:21:00,27.0,11.0,30.19,ENE,69,7.0,12.0,50,0.00,,,0.00,,2013-02-28 08:21:00,
2013-02-28 01:31:00,26.0,11.0,30.19,SE,146,0.0,7.0,53,0.00,,,0.00,,2013-02-28 08:31:00,
2013-02-28 01:41:00,26.0,11.0,30.19,SE,146,0.0,7.0,53,0.00,,,0.00,,2013-02-28 08:41:00,
2013-02-28 01:52:00,25.0,10.0,30.19,WSW,246,1.0,4.0,52,0.00,,,0.00,,2013-02-28 08:52:00,
2013-02-28 02:03:00,25.0,10.0,30.19,SSW,194,1.0,7.0,53,0.00,,,0.00,,2013-02-28 09:03:00,
2013-02-28 02:11:00,25.0,10.0,30.19,SSW,194,1.0,7.0,53,0.00,,,0.00,,2013-02-28 09:11:00,
2013-02-28 02:21:00,31.0,7.0,30.19,South,185,11.0,15.0,35,0.00,,,0.00,,2013-02-28 09:21:00,
2013-02-28 02:31:00,29.0,8.0,30.18,South,185,2.0,4.0,41,0.00,,,0.00,,2013-02-28 09:31:00,
2013-02-28 02:41:00,29.0,8.0,30.18,South,185,2.0,4.0,41,0.00,,,0.00,,2013-02-28 09:41:00,
2013-02-28 02:52:00,27.0,8.0,30.19,ESE,107,4.0,5.0,44,0.00,,,0.00,,2013-02-28 09:52:00,
2013-02-28 03:01:00,27.0,8.0,30.19,ESE,107,4.0,5.0,44,0.00,,,0.00,,2013-02-28 10:01:00,
2013-02-28 03:11:00,27.0,8.0,30.19,ESE,107,4.0,5.0,44,0.00,,,0.00,,2013-02-28 10:11:00,
2013-02-28 03:21:00,25.0,9.0,30.20,SW,232,3.0,4.0,49,0.00,,,0.00,,2013-02-28 10:21:00,
2013-02-28 03:32:00,23.0,8.0,30.21,WSW,257,3.0,5.0,52,0.00,,,0.00,,2013-02-28 10:32:00,
2013-02-28 03:42:00,23.0,8.0,30.21,WSW,257,3.0,5.0,52,0.00,,,0.00,,2013-02-28 10:42:00,
2013-02-28 03:51:00,22.0,8.0,30.20,SE,132,1.0,4.0,54,0.00,,,0.00,,2013-02-28 10:51:00,
2013-02-28 04:01:00,22.0,8.0,30.20,West,261,0.0,4.0,55,0.00,,,0.00,,2013-02-28 11:01:00,
2013-02-28 04:11:00,22.0,8.0,30.20,West,261,0.0,4.0,55,0.00,,,0.00,,2013-02-28 11:11:00,
2013-02-28 04:21:00,22.0,9.0,30.21,WNW,294,4.0,5.0,56,0.00,,,0.00,,2013-02-28 11:21:00,
2013-02-28 04:32:00,23.0,9.0,30.21,West,266,4.0,6.0,55,0.00,,,0.00,,2013-02-28 11:32:00,
2013-02-28 04:41:00,23.0,9.0,30.21,West,266,4.0,6.0,55,0.00,,,0.00,,2013-02-28 11:41:00,
2013-02-28 04:52:00,23.0,9.0,30.20,WSW,257,2.0,4.0,55,0.00,,,0.00,,2013-02-28 11:52:00,
2013-02-28 05:01:00,24.0,9.0,30.20,WSW,257,2.0,6.0,53,0.00,,,0.00,,2013-02-28 12:01:00,
2013-02-28 05:11:00,24.0,9.0,30.20,WSW,257,2.0,6.0,53,0.00,,,0.00,,2013-02-28 12:11:00,
2013-02-28 05:21:00,25.0,9.0,30.20,WNW,293,2.0,6.0,51,0.00,,,0.00,,2013-02-28 12:21:00,
2013-02-28 05:32:00,24.0,9.0,30.20,West,277,3.0,4.0,51,0.00,,,0.00,,2013-02-28 12:32:00,
2013-02-28 05:42:00,24.0,9.0,30.20,West,277,3.0,4.0,51,0.00,,,0.00,,2013-02-28 12:42:00,
2013-02-28 05:52:00,25.0,9.0,30.20,WSW,242,3.0,5.0,49,0.00,,,0.00,,2013-02-28 12:52:00,
2013-02-28 06:01:00,26.0,10.0,30.21,SSE,165,2.0,4.0,50,0.00,,,0.00,,2013-02-28 13:01:00,
2013-02-28 06:11:00,26.0,10.0,30.21,SSE,165,2.0,4.0,50,0.00,,,0.00,,2013-02-28 13:11:00,
2013-02-28 06:21:00,24.0,9.0,30.21,SE,142,4.0,6.0,52,0.00,,,0.00,,2013-02-28 13:21:00,
2013-02-28 06:32:00,24.0,9.0,30.21,NNW,333,3.0,5.0,53,0.00,,,0.00,,2013-02-28 13:32:00,
2013-02-28 06:41:00,24.0,9.0,30.21,NNW,333,3.0,5.0,53,0.00,,,0.00,,2013-02-28 13:41:00,
2013-02-28 06:52:00,24.0,10.0,30.21,South,183,1.0,3.0,55,0.00,,,0.00,,2013-02-28 13:52:00,
2013-02-28 07:01:00,24.0,11.0,30.21,South,183,1.0,3.0,56,0.00,,,0.00,,2013-02-28 14:01:00,
2013-02-28 07:11:00,24.0,10.0,30.21,WSW,250,1.0,3.0,54,0.00,,,0.00,,2013-02-28 14:11:00,
2013-02-28 07:21:00,24.0,10.0,30.21,WSW,250,1.0,3.0,54,0.00,,,0.00,,2013-02-28 14:21:00,
2013-02-28 07:31:00,24.0,10.0,30.21,NNW,348,3.0,4.0,54,0.00,,,0.00,,2013-02-28 14:31:00,
2013-02-28 07:41:00,24.0,10.0,30.21,NNW,348,3.0,4.0,54,0.00,,,0.00,,2013-02-28 14:41:00,
2013-02-28 07:52:00,25.0,10.0,30.22,SSW,201,0.0,4.0,52,0.00,,,0.00,,2013-02-28 14:52:00,
2013-02-28 08:02:00,26.0,10.0,30.22,NW,312,0.0,3.0,51,0.00,,,0.00,,2013-02-28 15:02:00,
2013-02-28 08:11:00,26.0,10.0,30.22,NW,312,0.0,3.0,51,0.00,,,0.00,,2013-02-28 15:11:00,
2013-02-28 08:21:00,26.0,11.0,30.23,East,88,1.0,3.0,52,0.00,,,0.00,,2013-02-28 15:21:00,
2013-02-28 08:32:00,27.0,11.0,30.23,South,190,1.0,4.0,50,0.00,,,0.00,,2013-02-28 15:32:00,
2013-02-28 08:41:00,27.0,11.0,30.23,South,190,1.0,4.0,50,0.00,,,0.00,,2013-02-28 15:41:00,
2013-02-28 08:52:00,27.0,11.0,30.24,South,190,1.0,3.0,50,0.00,,,0.00,,2013-02-28 15:52:00,
2013-02-28 09:01:00,27.0,11.0,30.23,ESE,109,1.0,3.0,51,0.00,,,0.00,,2013-02-28 16:01:00,
2013-02-28 09:11:00,27.0,11.0,30.23,ESE,109,1.0,3.0,51,0.00,,,0.00,,2013-02-28 16:11:00,
2013-02-28 09:21:00,27.0,13.0,30.24,East,101,1.0,7.0,54,0.00,,,0.00,,2013-02-28 16:21:00,
2013-02-28 09:31:00,27.0,12.0,30.24,ENE,57,2.0,5.0,53,0.00,,,0.00,,2013-02-28 16:31:00,
2013-02-28 09:42:00,27.0,12.0,30.24,ENE,57,2.0,5.0,53,0.00,,,0.00,,2013-02-28 16:42:00,
2013-02-28 09:52:00,27.0,12.0,30.23,ENE,62,4.0,6.0,52,0.00,,,0.00,,2013-02-28 16:52:00,
2013-02-28 10:01:00,28.0,12.0,30.23,NE,46,1.0,5.0,50,0.00,,,0.00,,2013-02-28 17:01:00,
2013-02-28 10:11:00,31.0,12.0,30.22,ESE,115,0.0,4.0,45,0.00,,,0.00,,2013-02-28 17:11:00,
2013-02-28 10:21:00,31.0,12.0,30.22,ESE,115,0.0,4.0,45,0.00,,,0.00,,2013-02-28 17:21:00,
2013-02-28 10:32:00,32.0,12.0,30.21,ENE,63,4.0,9.0,42,0.00,,,0.00,,2013-02-28 17:32:00,
2013-02-28 10:41:00,32.0,12.0,30.21,ENE,63,4.0,9.0,42,0.00,,,0.00,,2013-02-28 17:41:00,
2013-02-28 10:52:00,33.0,11.0,30.21,ENE,73,2.0,8.0,39,0.00,,,0.00,,2013-02-28 17:52:00,
2013-02-28 11:01:00,33.0,10.0,30.21,North,5,3.0,8.0,38,0.00,,,0.00,,2013-02-28 18:01:00,
2013-02-28 11:11:00,33.0,10.0,30.21,North,5,3.0,8.0,38,0.00,,,0.00,,2013-02-28 18:11:00,
2013-02-28 11:21:00,33.0,10.0,30.20,NNE,31,6.0,10.0,38,0.00,,,0.00,,2013-02-28 18:21:00,
2013-02-28 11:31:00,33.0,11.0,30.22,North,9,6.0,10.0,39,0.00,,,0.00,,2013-02-28 18:31:00,
2013-02-28 11:41:00,33.0,11.0,30.22,North,9,6.0,10.0,39,0.00,,,0.00,,2013-02-28 18:41:00,
2013-02-28 11:52:00,34.0,12.0,30.21,NNW,347,5.0,8.0,39,0.00,,,0.00,,2013-02-28 18:52:00,
2013-02-28 12:01:00,34.0,12.0,30.21,NE,35,6.0,10.0,39,0.00,,,0.00,,2013-02-28 19:01:00,
2013-02-28 12:11:00,34.0,12.0,30.21,NE,35,6.0,10.0,39,0.00,,,0.00,,2013-02-28 19:11:00,
2013-02-28 12:21:00,35.0,12.0,30.20,North,360,4.0,8.0,38,0.00,,,0.00,,2013-02-28 19:21:00,
2013-02-28 12:31:00,36.0,12.0,30.20,NNE,27,8.0,11.0,37,0.00,,,0.00,,2013-02-28 19:31:00,
2013-02-28 12:41:00,36.0,12.0,30.20,NNE,27,8.0,11.0,37,0.00,,,0.00,,2013-02-28 19:41:00,
2013-02-28 12:51:00,37.0,13.0,30.20,NE,40,8.0,14.0,37,0.00,,,0.00,,2013-02-28 19:51:00,
2013-02-28 13:01:00,37.0,13.0,30.20,North,355,3.0,11.0,36,0.00,,,0.00,,2013-02-28 20:01:00,
2013-02-28 13:11:00,37.0,13.0,30.20,North,355,3.0,11.0,36,0.00,,,0.00,,2013-02-28 20:11:00,
2013-02-28 13:21:00,38.0,13.0,30.19,ENE,73,2.0,8.0,35,0.00,,,0.00,,2013-02-28 20:21:00,
2013-02-28 13:31:00,39.0,12.0,30.19,NE,44,9.0,12.0,32,0.00,,,0.00,,2013-02-28 20:31:00,
2013-02-28 13:41:00,39.0,12.0,30.19,NE,44,9.0,12.0,32,0.00,,,0.00,,2013-02-28 20:41:00,
2013-02-28 13:52:00,40.0,13.0,30.18,North,5,7.0,11.0,32,0.00,,,0.00,,2013-02-28 20:52:00,
2013-02-28 14:01:00,39.0,13.0,30.18,NE,44,6.0,12.0,34,0.00,,,0.00,,2013-02-28 21:01:00,
2013-02-28 14:11:00,39.0,13.0,30.18,NE,44,6.0,12.0,34,0.00,,,0.00,,2013-02-28 21:11:00,
2013-02-28 14:22:00,40.0,14.0,30.18,NNE,26,6.0,11.0,34,0.00,,,0.00,,2013-02-28 21:22:00,
2013-02-28 14:31:00,40.0,14.0,30.19,NE,55,7.0,11.0,34,0.00,,,0.00,,2013-02-28 21:31:00,
2013-02-28 14:41:00,40.0,14.0,30.19,NE,55,7.0,11.0,34,0.00,,,0.00,,2013-02-28 21:41:00,
2013-02-28 14:51:00,41.0,15.0,30.19,NNE,30,4.0,12.0,34,0.00,,,0.00,,2013-02-28 21:51:00,
2013-02-28 15:01:00,40.0,13.0,30.19,ENE,73,9.0,14.0,33,0.00,,,0.00,,2013-02-28 22:01:00,
2013-02-28 15:11:00,40.0,13.0,30.19,ENE,73,9.0,14.0,33,0.00,,,0.00,,2013-02-28 22:11:00,
2013-02-28 15:21:00,40.0,13.0,30.19,NE,35,7.0,13.0,33,0.00,,,0.00,,2013-02-28 22:21:00,
2013-02-28 15:32:00,40.0,13.0,30.19,NE,52,4.0,13.0,33,0.00,,,0.00,,2013-02-28 22:32:00,
2013-02-28 15:41:00,40.0,13.0,30.19,NE,52,4.0,13.0,33,0.00,,,0.00,,2013-02-28 22:41:00,
2013-02-28 15:52:00,40.0,13.0,30.17,ENE,60,2.0,10.0,33,0.00,,,0.00,,2013-02-28 22:52:00,
2013-02-28 16:01:00,41.0,14.0,30.17,NNE,19,9.0,12.0,33,0.00,,,0.00,,2013-02-28 23:01:00,
2013-02-28 16:11:00,41.0,14.0,30.17,NNE,19,9.0,12.0,33,0.00,,,0.00,,2013-02-28 23:11:00,
2013-02-28 16:21:00,41.0,14.0,30.17,NNE,32,6.0,12.0,33,0.00,,,0.00,,2013-02-28 23:21:00,
2013-02-28 16:31:00,40.0,13.0,30.18,NNE,30,5.0,9.0,33,0.00,,,0.00,,2013-02-28 23:31:00,
2013-02-28 16:41:00,40.0,13.0,30.18,NNE,30,5.0,9.0,33,0.00,,,0.00,,2013-02-28 23:41:00,
2013-02-28 16:52:00,40.0,14.0,30.18,NNE,29,6.0,9.0,34,0.00,,,0.00,,2013-02-28 23:52:00,
2013-02-28 17:01:00,39.0,14.0,30.19,NE,48,5.0,8.0,35,0.00,,,0.00,,2013-03-01 00:01:00,
2013-02-28 17:11:00,39.0,14.0,30.19,NE,48,5.0,8.0,35,0.00,,,0.00,,2013-03-01 00:11:00,
2013-02-28 17:22:00,38.0,13.0,30.20,North,355,4.0,7.0,36,0.00,,,0.00,,2013-03-01 00:22:00,
2013-02-28 17:32:00,38.0,13.0,30.21,North,355,2.0,6.0,36,0.00,,,0.00,,2013-03-01 00:32:00,
2013-02-28 17:41:00,38.0,13.0,30.21,North,355,2.0,6.0,36,0.00,,,0.00,,2013-03-01 00:41:00,
2013-02-28 17:51:00,38.0,14.0,30.21,NNE,14,0.0,3.0,37,0.00,,,0.00,,2013-03-01 00:51:00,
2013-02-28 18:01:00,37.0,14.0,30.22,East,100,3.0,5.0,38,0.00,,,0.00,,2013-03-01 01:01:00,
2013-02-28 18:11:00,37.0,14.0,30.22,East,100,3.0,5.0,38,0.00,,,0.00,,2013-03-01 01:11:00,
2013-02-28 18:21:00,35.0,14.0,30.22,SE,126,1.0,3.0,41,0.00,,,0.00,,2013-03-01 01:21:00,
2013-02-28 18:31:00,34.0,16.0,30.23,NNE,13,3.0,5.0,47,0.00,,,0.00,,2013-03-01 01:31:00,
2013-02-28 18:41:00,34.0,16.0,30.23,NNE,13,3.0,5.0,47,0.00,,,0.00,,2013-03-01 01:41:00,
2013-02-28 18:51:00,33.0,16.0,30.23,WSW,244,1.0,3.0,49,0.00,,,0.00,,2013-03-01 01:51:00,
2013-02-28 19:01:00,33.0,16.0,30.24,ESE,122,0.0,2.0,50,0.00,,,0.00,,2013-03-01 02:01:00,
2013-02-28 19:11:00,33.0,16.0,30.24,SE,132,1.0,3.0,49,0.00,,,0.00,,2013-03-01 02:11:00,
2013-02-28 19:21:00,33.0,16.0,30.24,SE,132,1.0,3.0,49,0.00,,,0.00,,2013-03-01 02:21:00,
2013-02-28 19:31:00,32.0,16.0,30.24,NE,34,1.0,3.0,51,0.00,,,0.00,,2013-03-01 02:31:00,
2013-02-28 19:41:00,32.0,16.0,30.24,NE,34,1.0,3.0,51,0.00,,,0.00,,2013-03-01 02:41:00,
2013-02-28 19:52:00,31.0,15.0,30.25,SW,220,1.0,4.0,51,0.00,,,0.00,,2013-03-01 02:52:00,
2013-02-28 20:01:00,32.0,15.0,30.24,SSW,210,2.0,5.0,50,0.00,,,0.00,,2013-03-01 03:01:00,
2013-02-28 20:11:00,32.0,15.0,30.24,SSW,210,2.0,5.0,50,0.00,,,0.00,,2013-03-01 03:11:00,
2013-02-28 20:21:00,31.0,15.0,30.24,WSW,242,1.0,3.0,50,0.00,,,0.00,,2013-03-01 03:21:00,
2013-02-28 20:32:00,31.0,14.0,30.25,West,264,2.0,4.0,49,0.00,,,0.00,,2013-03-01 03:32:00,
2013-02-28 20:41:00,31.0,14.0,30.25,West,264,2.0,4.0,49,0.00,,,0.00,,2013-03-01 03:41:00,
2013-02-28 20:51:00,30.0,14.0,30.25,West,259,4.0,5.0,50,0.00,,,0.00,,2013-03-01 03:51:00,
2013-02-28 21:01:00,31.0,14.0,30.24,WSW,254,1.0,4.0,49,0.00,,,0.00,,2013-03-01 04:01:00,
2013-02-28 21:11:00,31.0,14.0,30.24,WSW,254,1.0,4.0,49,0.00,,,0.00,,2013-03-01 04:11:00,
2013-02-28 21:21:00,29.0,14.0,30.25,WNW,286,1.0,4.0,53,0.00,,,0.00,,2013-03-01 04:21:00,
2013-02-28 21:31:00,28.0,14.0,30.25,West,264,0.0,5.0,56,0.00,,,0.00,,2013-03-01 04:31:00,
2013-02-28 21:41:00,28.0,14.0,30.25,West,264,0.0,5.0,56,0.00,,,0.00,,2013-03-01 04:41:00,
2013-02-28 21:51:00,29.0,14.0,30.26,West,270,0.0,3.0,54,0.00,,,0.00,,2013-03-01 04:51:00,
2013-02-28 22:01:00,29.0,14.0,30.26,West,269,0.0,2.0,52,0.00,,,0.00,,2013-03-01 05:01:00,
2013-02-28 22:11:00,29.0,14.0,30.26,West,269,0.0,2.0,52,0.00,,,0.00,,2013-03-01 05:11:00,
2013-02-28 22:22:00,29.0,13.0,30.26,SW,235,1.0,3.0,51,0.00,,,0.00,,2013-03-01 05:22:00,
2013-02-28 22:32:00,28.0,12.0,30.26,West,263,3.0,5.0,51,0.00,,,0.00,,2013-03-01 05:32:00,
2013-02-28 22:41:00,28.0,12.0,30.26,West,263,3.0,5.0,51,0.00,,,0.00,,2013-03-01 05:41:00,
2013-02-28 22:52:00,28.0,13.0,30.25,West,263,0.0,1.0,52,0.00,,,0.00,,2013-03-01 05:52:00,
2013-02-28 23:01:00,27.0,13.0,30.25,SSE,163,3.0,4.0,55,0.00,,,0.00,,2013-03-01 06:01:00,
2013-02-28 23:11:00,27.0,13.0,30.25,SSE,163,3.0,4.0,55,0.00,,,0.00,,2013-03-01 06:11:00,
2013-02-28 23:21:00,26.0,12.0,30.24,West,266,2.0,4.0,56,0.00,,,0.00,,2013-03-01 06:21:00,
2013-02-28 23:32:00,25.0,13.0,30.24,WNW,284,0.0,8.0,59,0.00,,,0.00,,2013-03-01 06:32:00,
2013-02-28 23:52:00,26.0,13.0,30.24,SSW,193,4.0,6.0,58,0.00,,,0.00,,2013-03-01 06:52:00,